Portada
METAR-TAF:

METAR-TAF

Aeroports :

Aeroport Internacional de Tòquio

Tòquio Haneda, Japó

latitud: 35-33N, longitud: 139-47E, altitud: 5 m

Observació

L'informe es va fer fa 22 minuts, a les 20:30 UTC
Vent 3 kt del Est/Sud-Est, variant entre Est/Nord-Est i Sud/Sud-Est
Temperatura 28°C
Humitat 89%
Pressió 1012 hPa
Visibilitat 10 km o més
Escasses núvols a una alçada de 1500 ft
Cel ennuvolat

METAR: RJTT 092030Z 12003KT 060V150 9999 FEW015 BKN/// 28/26 Q1012 NOSIG

Hora: 05:52 (20:52 UTC)

Pronòstic

L'informe es va fer fa 3 hores i 47 minuts, a les 17:05 UTC
Pronòstic vàlid del 09 a les 18 UTC al 11 a les 00 UTC
Vent 4 kt del Oest
Visibilitat 10 km o més
Escasses núvols a una alçada de 3000 ft
Evolucionant progressivament
l' 09 a les 21 UTC al 09 a les 23 UTC
Vent 5 kt del Est
Evolucionant progressivament
l' 10 a les 01 UTC al 10 a les 03 UTC
Vent 12 kt del Sud

TAF: RJTT 091705Z 0918/1100 26004KT 9999 FEW030 BECMG 0921/0923 10005KT BECMG 1001/1003 19012KT

Observacions i pronòstics meteorològics de més de 4000 aeroports (METAR i TAF).

Les estacions disponibles són els punts grocs i vermells al mapa.

Posi el ratolí al punt desitjat per veure el nom de l'estació.

Feu clic per veure les observacions i els pronòstics meteorològics.

Per canviar el mapa: feu clic els botons verds amb una creu de color negre per apropar; al botó verd amb un guió per allunyar la imatge; o en les fletxes verdes per a mapes adjacents.


METAR-TAF: